Time;durP1;ratioP1;P1;durP2;ratioP2;P2;SDS_P1;SDS_P2;PMS_P1;PMS_P2;Temp;Humidity;BMP_temperature;BMP_pressure;BME280_temperature;BME280_humidity;BME280_pressure;Samples;Min_cycle;Max_cycle;Signal;HPM_P1;HPM_P2
2023/07/28 00:00:36;;;;;;;1999.90;999.90;;;;;;;25.91;67.42;100527.38;5067217;28;20583;-71
2023/07/28 00:03:01;;;;;;;1999.90;999.90;;;;;;;25.51;72.08;100535.88;5067865;28;20029;-71
2023/07/28 00:05:27;;;;;;;1999.90;999.90;;;;;;;24.84;74.04;100527.53;5044880;28;20029;-70
2023/07/28 00:07:52;;;;;;;1999.90;999.90;;;;;;;25.53;70.58;100533.94;5056850;28;20064;-71
2023/07/28 00:10:18;;;;;;;1999.90;999.90;;;;;;;24.92;75.32;100539.47;5049508;28;20017;-71
2023/07/28 00:12:43;;;;;;;1999.90;999.90;;;;;;;24.50;80.30;100546.03;5038407;28;20040;-71
2023/07/28 00:15:09;;;;;;;1999.90;999.90;;;;;;;25.72;71.33;100541.41;5047609;28;20033;-71
2023/07/28 00:17:34;;;;;;;1999.90;999.90;;;;;;;25.69;71.00;100534.44;5053314;28;20051;-70
2023/07/28 00:20:00;;;;;;;1999.90;999.90;;;;;;;25.77;69.31;100536.50;5034657;28;20039;-71
2023/07/28 00:22:25;;;;;;;1999.90;999.90;;;;;;;25.75;69.71;100527.75;5050411;28;20500;-71
2023/07/28 00:24:51;;;;;;;1999.90;999.90;;;;;;;24.79;75.76;100535.03;5067651;28;20823;-71
2023/07/28 00:27:16;;;;;;;1999.90;999.90;;;;;;;25.15;72.68;100527.88;5049433;28;20033;-70
2023/07/28 00:29:41;;;;;;;1999.90;999.90;;;;;;;25.47;72.24;100529.06;5066580;28;20027;-71
2023/07/28 00:32:07;;;;;;;1999.90;999.90;;;;;;;25.69;69.35;100538.94;5030061;28;20108;-71
2023/07/28 00:34:36;;;;;;;1999.90;999.90;;;;;;;26.16;66.99;100530.78;5051365;28;20048;-71
2023/07/28 00:37:02;;;;;;;1999.90;999.90;;;;;;;25.41;72.38;100535.75;5070943;28;20064;-71
2023/07/28 00:39:27;;;;;;;1999.90;999.90;;;;;;;26.27;67.36;100521.91;5070871;28;20031;-71
2023/07/28 00:41:52;;;;;;;1999.90;999.90;;;;;;;25.82;68.80;100523.63;5036626;28;20379;-71
2023/07/28 00:44:18;;;;;;;1999.90;999.90;;;;;;;26.23;69.00;100532.88;5052111;28;20020;-71
2023/07/28 00:46:44;;;;;;;1999.90;999.90;;;;;;;27.07;62.31;100539.44;5039260;28;20620;-72
2023/07/28 00:49:10;;;;;;;1999.90;999.90;;;;;;;26.66;65.47;100533.00;5033947;28;20033;-71
2023/07/28 00:51:37;;;;;;;1999.90;999.90;;;;;;;26.50;63.84;100541.44;5066444;28;20032;-71
2023/07/28 00:54:05;;;;;;;1999.90;999.90;;;;;;;25.71;70.77;100537.00;5070962;28;20582;-71
2023/07/28 00:56:30;;;;;;;1999.90;999.90;;;;;;;25.56;72.36;100539.91;5070406;28;20059;-71
2023/07/28 00:58:56;;;;;;;1999.90;999.90;;;;;;;26.06;67.20;100536.03;5042987;28;20032;-71
2023/07/28 01:01:22;;;;;;;1999.90;999.90;;;;;;;26.16;67.38;100534.34;5046987;28;20385;-70
2023/07/28 01:03:49;;;;;;;1999.90;999.90;;;;;;;25.01;74.31;100541.44;5053149;28;20033;-71
2023/07/28 01:06:26;;;;;;;1999.90;999.90;;;;;;;26.07;67.88;100532.41;5048587;28;20544;-71
2023/07/28 01:09:06;;;;;;;1999.90;999.90;;;;;;;26.52;65.51;100535.00;5063669;28;20048;-71
2023/07/28 01:11:32;;;;;;;1999.90;999.90;;;;;;;25.83;69.78;100530.69;5057534;28;20031;-71
2023/07/28 01:13:57;;;;;;;1999.90;999.90;;;;;;;26.03;68.11;100533.63;5070210;28;20059;-71
2023/07/28 01:16:23;;;;;;;1999.90;999.90;;;;;;;26.66;65.27;100539.22;5070449;28;20144;-71
2023/07/28 01:18:49;;;;;;;1999.90;999.90;;;;;;;25.67;69.24;100531.03;5050884;28;20032;-71
2023/07/28 01:21:21;;;;;;;1999.90;999.90;;;;;;;25.86;67.54;100530.44;5043727;28;20025;-71
2023/07/28 01:24:05;;;;;;;1999.90;999.90;;;;;;;25.25;72.69;100541.38;5051998;28;20404;-71
2023/07/28 01:26:35;;;;;;;1999.90;999.90;;;;;;;25.67;71.45;100535.53;5052900;28;20058;-71
2023/07/28 01:29:02;;;;;;;1999.90;999.90;;;;;;;25.73;69.61;100530.56;5051224;28;20375;-71
2023/07/28 01:31:27;;;;;;;1999.90;999.90;;;;;;;27.10;62.12;100525.78;5057827;28;20024;-71
2023/07/28 01:33:53;;;;;;;1999.90;999.90;;;;;;;27.12;62.52;100533.69;5049919;28;20429;-71
2023/07/28 01:36:18;;;;;;;1999.90;999.90;;;;;;;26.49;66.25;100535.25;5050409;28;20063;-71
2023/07/28 01:38:44;;;;;;;1999.90;999.90;;;;;;;26.87;63.31;100536.63;5049970;28;20028;-70
2023/07/28 01:41:09;;;;;;;1999.90;999.90;;;;;;;26.26;65.31;100525.56;5051943;28;20036;-71
2023/07/28 01:43:34;;;;;;;1999.90;999.90;;;;;;;25.71;69.64;100537.84;5067828;28;20036;-70
2023/07/28 01:46:00;;;;;;;1999.90;999.90;;;;;;;26.24;68.02;100531.91;5050041;28;20449;-71
2023/07/28 01:48:26;;;;;;;1999.90;999.90;;;;;;;26.39;66.17;100531.59;5032110;28;20504;-71
2023/07/28 01:50:51;;;;;;;1999.90;999.90;;;;;;;26.97;63.99;100533.16;5039327;28;20244;-71
2023/07/28 01:53:17;;;;;;;1999.90;999.90;;;;;;;26.47;66.39;100539.88;5034333;28;20033;-71
2023/07/28 01:55:42;;;;;;;1999.90;999.90;;;;;;;25.96;68.45;100543.09;5034283;28;20079;-71
2023/07/28 01:58:07;;;;;;;1999.90;999.90;;;;;;;27.39;59.74;100543.94;5051940;28;20086;-71
2023/07/28 02:00:36;;;;;;;1999.90;999.90;;;;;;;27.12;61.32;100545.28;5044969;28;20021;-71
2023/07/28 02:03:04;;;;;;;1999.90;999.90;;;;;;;27.20;60.19;100536.56;5032173;28;20035;-71
2023/07/28 02:05:30;;;;;;;1999.90;999.90;;;;;;;27.93;58.20;100524.00;5033608;28;20473;-70
2023/07/28 02:07:56;;;;;;;1999.90;999.90;;;;;;;27.57;60.44;100523.56;5069590;28;20028;-71
2023/07/28 02:10:23;;;;;;;1999.90;999.90;;;;;;;28.07;57.43;100514.75;5047400;28;20494;-70
2023/07/28 02:12:50;;;;;;;1999.90;999.90;;;;;;;27.82;58.56;100529.47;5042776;28;20467;-70
2023/07/28 02:15:15;;;;;;;1999.90;999.90;;;;;;;27.44;60.13;100533.66;5058035;28;20025;-71
2023/07/28 02:17:41;;;;;;;1999.90;999.90;;;;;;;27.04;61.38;100542.41;5048795;28;20038;-70
2023/07/28 02:20:10;;;;;;;1999.90;999.90;;;;;;;26.65;63.87;100525.94;5050393;28;20029;-70
2023/07/28 02:22:36;;;;;;;1999.90;999.90;;;;;;;26.94;63.82;100528.88;5037376;28;20036;-71
2023/07/28 02:25:01;;;;;;;1999.90;999.90;;;;;;;27.27;60.67;100527.00;5048945;28;20017;-70
2023/07/28 02:27:27;;;;;;;1999.90;999.90;;;;;;;26.30;65.94;100532.38;5051469;28;20537;-69
2023/07/28 02:29:53;;;;;;;1999.90;999.90;;;;;;;27.58;59.03;100525.25;5068589;28;20108;-70
2023/07/28 02:32:18;;;;;;;1999.90;999.90;;;;;;;26.52;66.21;100532.31;5031858;28;20025;-71
2023/07/28 02:34:44;;;;;;;1999.90;999.90;;;;;;;26.57;64.11;100530.13;5031511;28;20393;-71
2023/07/28 02:37:09;;;;;;;1999.90;999.90;;;;;;;27.29;60.68;100529.59;5031577;28;20481;-71
2023/07/28 02:39:35;;;;;;;1999.90;999.90;;;;;;;27.18;60.59;100536.69;5053348;28;20106;-70
2023/07/28 02:42:01;;;;;;;1999.90;999.90;;;;;;;26.93;61.79;100540.63;5045644;28;20044;-70
2023/07/28 02:44:26;;;;;;;1999.90;999.90;;;;;;;27.19;62.08;100538.41;5049993;28;20425;-71
2023/07/28 02:46:52;;;;;;;1999.90;999.90;;;;;;;27.31;62.44;100543.72;5061793;28;20036;-71
2023/07/28 02:49:17;;;;;;;1999.90;999.90;;;;;;;27.35;61.58;100539.78;5068872;28;20590;-71
2023/07/28 02:51:43;;;;;;;1999.90;999.90;;;;;;;27.32;60.85;100540.88;5068454;28;20115;-71
2023/07/28 02:54:08;;;;;;;1999.90;999.90;;;;;;;26.27;66.56;100538.84;5051654;28;20123;-71
2023/07/28 02:56:37;;;;;;;1999.90;999.90;;;;;;;27.61;60.18;100534.03;5059693;28;20139;-70
2023/07/28 02:59:03;;;;;;;1999.90;999.90;;;;;;;27.74;59.70;100540.03;5085906;28;20028;-71
2023/07/28 03:01:33;;;;;;;1999.90;999.90;;;;;;;26.95;62.40;100545.84;5084178;28;20034;-71
2023/07/28 03:04:00;;;;;;;1999.90;999.90;;;;;;;26.49;64.63;100545.09;5088126;28;20039;-71
2023/07/28 03:06:26;;;;;;;1999.90;999.90;;;;;;;26.99;64.42;100550.81;5087739;28;20535;-70
2023/07/28 03:08:51;;;;;;;1999.90;999.90;;;;;;;26.78;65.46;100556.16;5087740;28;20030;-70
2023/07/28 03:11:16;;;;;;;1999.90;999.90;;;;;;;25.95;68.74;100549.41;5080771;28;20012;-71
2023/07/28 03:13:42;;;;;;;1999.90;999.90;;;;;;;26.80;64.35;100562.22;5087644;28;20511;-71
2023/07/28 03:16:07;;;;;;;1999.90;999.90;;;;;;;27.55;61.51;100557.72;5080581;28;20020;-71
2023/07/28 03:18:34;;;;;;;1999.90;999.90;;;;;;;26.23;66.49;100551.63;5075115;28;20028;-70
2023/07/28 03:20:59;;;;;;;1999.90;999.90;;;;;;;26.27;66.45;100570.09;5086539;28;20544;-70
2023/07/28 03:23:25;;;;;;;1999.90;999.90;;;;;;;26.12;69.78;100562.34;5086262;28;20027;-71
2023/07/28 03:25:50;;;;;;;1999.90;999.90;;;;;;;25.96;71.03;100561.84;5082562;28;20380;-70
2023/07/28 03:28:16;;;;;;;1999.90;999.90;;;;;;;26.36;66.04;100558.66;5074730;28;20059;-71
2023/07/28 03:30:41;;;;;;;1999.90;999.90;;;;;;;26.56;65.76;100559.72;5082185;28;20376;-71
2023/07/28 03:33:06;;;;;;;1999.90;999.90;;;;;;;26.12;67.02;100558.81;5089385;28;20024;-70
2023/07/28 03:35:32;;;;;;;1999.90;999.90;;;;;;;26.37;66.38;100555.00;5084901;28;20503;-70
2023/07/28 03:37:57;;;;;;;1999.90;999.90;;;;;;;26.92;62.94;100555.00;5076421;28;20024;-70
2023/07/28 03:40:23;;;;;;;1999.90;999.90;;;;;;;26.44;65.86;100561.56;5089058;28;20047;-71
2023/07/28 03:42:48;;;;;;;1999.90;999.90;;;;;;;27.18;62.63;100565.38;5086689;28;20069;-71
2023/07/28 03:45:14;;;;;;;1999.90;999.90;;;;;;;27.85;58.91;100561.44;5087660;28;20028;-70
2023/07/28 03:47:39;;;;;;;1999.90;999.90;;;;;;;27.37;61.41;100564.69;5085765;28;20028;-71
2023/07/28 03:50:05;;;;;;;1999.90;999.90;;;;;;;26.84;62.69;100568.19;5083652;28;20082;-70
2023/07/28 03:52:31;;;;;;;1999.90;999.90;;;;;;;26.07;68.31;100576.09;5087214;28;20088;-71
2023/07/28 03:54:57;;;;;;;1999.90;999.90;;;;;;;25.94;68.53;100570.00;5083565;28;20040;-70
2023/07/28 03:57:22;;;;;;;1999.90;999.90;;;;;;;27.12;62.33;100573.91;5087614;28;20040;-71
2023/07/28 03:59:48;;;;;;;1999.90;999.90;;;;;;;27.82;58.45;100575.13;5071947;28;20028;-71
2023/07/28 04:02:13;;;;;;;1999.90;999.90;;;;;;;27.18;60.32;100581.47;5066809;28;20067;-71
2023/07/28 04:04:39;;;;;;;1999.90;999.90;;;;;;;26.60;64.88;100577.25;5066704;28;20047;-71
2023/07/28 04:07:04;;;;;;;1999.90;999.90;;;;;;;26.28;66.09;100582.53;5067534;28;20024;-71
2023/07/28 04:09:30;;;;;;;1999.90;999.90;;;;;;;26.17;67.16;100581.59;5081905;28;20024;-71
2023/07/28 04:11:55;;;;;;;1999.90;999.90;;;;;;;26.03;68.55;100581.81;5091133;28;20039;-70
2023/07/28 04:14:21;;;;;;;1999.90;999.90;;;;;;;26.77;64.47;100586.59;5091672;28;20154;-70
2023/07/28 04:16:46;;;;;;;1999.90;999.90;;;;;;;26.88;62.88;100586.56;5087685;28;20031;-70
2023/07/28 04:19:11;;;;;;;1999.90;999.90;;;;;;;26.88;62.79;100589.25;5082493;28;20032;-71
2023/07/28 04:21:39;;;;;;;1999.90;999.90;;;;;;;26.42;64.79;100580.44;5073154;28;20016;-71
2023/07/28 04:24:09;;;;;;;1999.90;999.90;;;;;;;26.85;62.99;100589.50;5086894;28;20035;-70
2023/07/28 04:26:34;;;;;;;1999.90;999.90;;;;;;;26.48;65.04;100579.09;5090597;28;20035;-70
2023/07/28 04:29:00;;;;;;;1999.90;999.90;;;;;;;27.41;61.59;100582.22;5080944;28;20028;-71
2023/07/28 04:31:26;;;;;;;1999.90;999.90;;;;;;;27.20;61.27;100585.72;5082043;28;20040;-71
2023/07/28 04:33:51;;;;;;;1999.90;999.90;;;;;;;26.77;62.74;100589.28;5089839;28;20489;-70
2023/07/28 04:36:17;;;;;;;1999.90;999.90;;;;;;;27.42;60.55;100589.28;5087976;28;20032;-71
2023/07/28 04:38:42;;;;;;;1999.90;999.90;;;;;;;26.85;64.05;100592.19;5076351;28;20165;-71
2023/07/28 04:41:08;;;;;;;1999.90;999.90;;;;;;;26.63;65.22;100585.03;5081931;28;20067;-71
2023/07/28 04:43:37;;;;;;;1999.90;999.90;;;;;;;27.70;60.51;100592.28;5069867;28;20085;-70
2023/07/28 04:46:02;;;;;;;1999.90;999.90;;;;;;;26.95;62.70;100596.78;5090024;28;20024;-71
2023/07/28 04:48:27;;;;;;;1999.90;999.90;;;;;;;27.37;61.20;100588.84;5086334;28;20606;-71
2023/07/28 04:50:53;;;;;;;1999.90;999.90;;;;;;;26.54;64.58;100592.00;5069801;28;20479;-71
2023/07/28 04:53:18;;;;;;;1999.90;999.90;;;;;;;26.06;67.10;100600.31;5070970;28;20035;-71
2023/07/28 04:55:44;;;;;;;1999.90;999.90;;;;;;;26.54;66.13;100592.00;5069499;28;20028;-71
2023/07/28 04:58:09;;;;;;;1999.90;999.90;;;;;;;26.63;64.79;100585.03;5089045;28;20020;-71
2023/07/28 05:00:34;;;;;;;1999.90;999.90;;;;;;;27.13;61.33;100589.03;5087862;28;20024;-71
2023/07/28 05:03:00;;;;;;;1999.90;999.90;;;;;;;27.74;59.35;100585.69;5089999;28;20576;-71
2023/07/28 05:05:25;;;;;;;1999.90;999.90;;;;;;;27.19;60.46;100583.13;5087564;28;20028;-71
2023/07/28 05:07:51;;;;;;;1999.90;999.90;;;;;;;27.20;60.11;100591.09;5075942;28;20036;-71
2023/07/28 05:10:16;;;;;;;1999.90;999.90;;;;;;;27.10;62.93;100587.47;5069801;28;20500;-70
2023/07/28 05:12:42;;;;;;;1999.90;999.90;;;;;;;27.14;62.43;100594.28;5084314;28;20119;-71
2023/07/28 05:15:10;;;;;;;1999.90;999.90;;;;;;;27.10;62.38;100595.50;5074929;28;20096;-71
2023/07/28 05:17:37;;;;;;;1999.90;999.90;;;;;;;26.85;63.40;100592.19;5084746;28;20043;-70
2023/07/28 05:20:03;;;;;;;1999.90;999.90;;;;;;;27.51;60.78;100593.88;5087640;28;20026;-71
2023/07/28 05:22:28;;;;;;;1999.90;999.90;;;;;;;27.79;60.32;100602.22;5091064;28;20062;-71
2023/07/28 05:24:54;;;;;;;1999.90;999.90;;;;;;;27.48;61.06;100596.81;5081589;28;20528;-71
2023/07/28 05:27:19;;;;;;;1999.90;999.90;;;;;;;27.41;61.49;100595.66;5078673;28;20034;-71
2023/07/28 05:29:44;;;;;;;1999.90;999.90;;;;;;;27.88;59.72;100601.44;5071011;28;20016;-71
2023/07/28 05:32:10;;;;;;;1999.90;999.90;;;;;;;28.28;58.06;100597.09;5071215;28;20032;-71
2023/07/28 05:34:35;;;;;;;1999.90;999.90;;;;;;;27.84;59.36;100610.72;5068502;28;20523;-71
2023/07/28 05:37:01;;;;;;;1999.90;999.90;;;;;;;27.97;58.66;100609.66;5080416;28;20107;-71
2023/07/28 05:39:26;;;;;;;1999.90;999.90;;;;;;;27.77;59.48;100615.78;5086401;28;20032;-71
2023/07/28 05:41:52;;;;;;;1999.90;999.90;;;;;;;27.18;61.06;100610.97;5088001;28;20032;-71
2023/07/28 05:44:17;;;;;;;1999.90;999.90;;;;;;;26.98;61.88;100618.81;5076318;28;20040;-70
2023/07/28 05:46:42;;;;;;;1999.90;999.90;;;;;;;27.31;61.68;100618.81;5085889;28;20548;-71
2023/07/28 05:49:08;;;;;;;1999.90;999.90;;;;;;;27.91;59.19;100622.63;5081015;28;20032;-70
2023/07/28 05:51:36;;;;;;;1999.90;999.90;;;;;;;26.62;64.59;100617.31;5090520;28;20028;-70
2023/07/28 05:54:02;;;;;;;1999.90;999.90;;;;;;;26.50;67.11;100621.84;5089954;28;20361;-71
2023/07/28 05:56:27;;;;;;;1999.90;999.90;;;;;;;26.58;64.72;100612.22;5087778;28;20051;-71
2023/07/28 05:58:53;;;;;;;1999.90;999.90;;;;;;;26.44;66.30;100619.66;5089702;28;20024;-71
2023/07/28 06:01:18;;;;;;;1999.90;999.90;;;;;;;26.91;62.77;100623.00;5088408;28;20028;-71
2023/07/28 06:03:44;;;;;;;1999.90;999.90;;;;;;;27.01;62.07;100629.31;5089411;28;20024;-72
2023/07/28 06:06:10;;;;;;;1999.90;999.90;;;;;;;26.99;62.21;100630.44;5082221;28;20067;-72
2023/07/28 06:08:35;;;;;;;1999.90;999.90;;;;;;;26.01;66.13;100637.28;5078780;28;20058;-70
2023/07/28 06:11:04;;;;;;;1999.90;999.90;;;;;;;26.17;69.01;100635.16;5069501;28;20027;-71
2023/07/28 06:13:30;;;;;;;1999.90;999.90;;;;;;;26.72;65.31;100631.69;5069013;28;20020;-71
2023/07/28 06:15:56;;;;;;;1999.90;999.90;;;;;;;26.97;63.11;100637.72;5067865;28;20488;-71
2023/07/28 06:18:22;;;;;;;1999.90;999.90;;;;;;;27.35;61.32;100641.72;5076758;28;20116;-71
2023/07/28 06:20:48;;;;;;;1999.90;999.90;;;;;;;26.48;65.10;100642.56;5073207;28;20020;-71
2023/07/28 06:23:13;;;;;;;1999.90;999.90;;;;;;;26.50;64.91;100646.81;5069691;28;20035;-71
2023/07/28 06:25:43;;;;;;;1999.90;999.90;;;;;;;26.29;66.23;100651.22;5068562;28;20059;-71
2023/07/28 06:28:09;;;;;;;1999.90;999.90;;;;;;;25.99;66.64;100653.47;5069126;28;20055;-71
2023/07/28 06:30:37;;;;;;;1999.90;999.90;;;;;;;26.50;65.18;100662.91;5068745;28;20067;-71
2023/07/28 06:33:05;;;;;;;1999.90;999.90;;;;;;;26.67;62.36;100663.38;5068331;28;20020;-72
2023/07/28 06:35:30;;;;;;;1999.90;999.90;;;;;;;27.00;61.49;100664.31;5074165;28;20194;-72
2023/07/28 06:37:56;;;;;;;1999.90;999.90;;;;;;;26.23;64.63;100671.31;5073731;28;20488;-71
2023/07/28 06:40:21;;;;;;;1999.90;999.90;;;;;;;27.12;62.37;100668.66;5070191;28;20029;-71
2023/07/28 06:42:47;;;;;;;1999.90;999.90;;;;;;;26.42;64.49;100670.69;5067977;28;20020;-71
2023/07/28 06:45:13;;;;;;;1999.90;999.90;;;;;;;27.30;60.50;100676.13;5071033;28;20500;-71
2023/07/28 06:47:39;;;;;;;1999.90;999.90;;;;;;;26.75;61.29;100672.53;5070635;28;20035;-71
2023/07/28 06:50:05;;;;;;;1999.90;999.90;;;;;;;26.22;63.29;100686.50;5080009;28;20024;-71
2023/07/28 06:52:40;;;;;;;1999.90;999.90;;;;;;;27.01;62.42;100682.94;5083090;28;20106;-71
2023/07/28 06:55:06;;;;;;;1999.90;999.90;;;;;;;26.55;63.12;100676.75;5088453;28;20027;-71
2023/07/28 06:57:37;;;;;;;1999.90;999.90;;;;;;;27.02;59.48;100673.91;5073096;28;20056;-71
2023/07/28 07:00:03;;;;;;;1999.90;999.90;;;;;;;26.79;63.02;100681.19;5051846;28;20100;-71
2023/07/28 07:02:29;;;;;;;1999.90;999.90;;;;;;;27.26;60.45;100681.78;5039762;28;20036;-71
2023/07/28 07:04:54;;;;;;;1999.90;999.90;;;;;;;27.09;60.38;100685.00;5050032;28;20028;-71
2023/07/28 07:07:20;;;;;;;1999.90;999.90;;;;;;;27.74;58.42;100690.38;5049829;28;20658;-71
2023/07/28 07:09:45;;;;;;;1999.90;999.90;;;;;;;25.90;65.83;100700.53;5049668;28;20017;-71
2023/07/28 07:12:11;;;;;;;1999.90;999.90;;;;;;;28.07;56.75;100701.94;5057942;28;20540;-71
2023/07/28 07:14:36;;;;;;;1999.90;999.90;;;;;;;27.81;58.11;100702.28;5037740;28;20025;-71
2023/07/28 07:17:02;;;;;;;1999.90;999.90;;;;;;;27.41;58.04;100702.97;5056836;28;20128;-71
2023/07/28 07:19:28;;;;;;;1999.90;999.90;;;;;;;28.35;55.02;100715.66;5039261;28;20025;-70
2023/07/28 07:21:54;;;;;;;1999.90;999.90;;;;;;;27.25;59.09;100709.56;5030826;28;20396;-72
2023/07/28 07:24:19;;;;;;;1999.90;999.90;;;;;;;28.20;56.85;100713.28;5049674;28;20036;-72
2023/07/28 07:26:46;;;;;;;1999.90;999.90;;;;;;;27.90;55.48;100717.63;5065643;28;20016;-72
2023/07/28 07:29:12;;;;;;;1999.90;999.90;;;;;;;28.21;55.71;100715.00;5048056;28;20385;-71
2023/07/28 07:31:38;;;;;;;1999.90;999.90;;;;;;;28.75;54.02;100706.78;5048789;28;20498;-72
2023/07/28 07:34:04;;;;;;;1999.90;999.90;;;;;;;28.65;53.89;100708.59;5061977;28;20028;-72
2023/07/28 07:36:30;;;;;;;1999.90;999.90;;;;;;;28.42;55.55;100719.50;5037632;28;20025;-72
2023/07/28 07:38:55;;;;;;;1999.90;999.90;;;;;;;28.40;54.25;100718.78;5045791;28;20031;-72
2023/07/28 07:41:22;;;;;;;1999.90;999.90;;;;;;;28.13;55.15;100722.88;5041939;28;20032;-71
2023/07/28 07:43:49;;;;;;;1999.90;999.90;;;;;;;28.48;54.98;100721.66;5050655;28;20031;-71
2023/07/28 07:46:15;;;;;;;1999.90;999.90;;;;;;;28.01;56.55;100723.94;5073890;28;20469;-71
2023/07/28 07:48:40;;;;;;;1999.90;999.90;;;;;;;27.86;57.56;100721.56;5066428;28;20036;-70
2023/07/28 07:51:07;;;;;;;1999.90;999.90;;;;;;;28.46;55.63;100726.31;5059255;28;20035;-71
2023/07/28 07:53:32;;;;;;;1999.90;999.90;;;;;;;29.32;52.03;100715.13;5055126;28;20036;-72
2023/07/28 07:55:58;;;;;;;1999.90;999.90;;;;;;;30.89;49.03;100726.44;5053992;28;20107;-72
2023/07/28 07:58:23;;;;;;;1999.90;999.90;;;;;;;30.38;49.16;100725.94;5052286;28;20032;-72
2023/07/28 08:00:49;;;;;;;1999.90;999.90;;;;;;;30.23;48.78;100725.56;5034495;28;20032;-71
2023/07/28 08:03:15;;;;;;;1999.90;999.90;;;;;;;29.66;49.90;100732.69;5037858;28;20040;-71
2023/07/28 08:05:40;;;;;;;1999.90;999.90;;;;;;;29.88;47.84;100732.44;5036345;28;20124;-71
2023/07/28 08:08:07;;;;;;;1999.90;999.90;;;;;;;31.33;45.72;100736.56;5052214;28;20029;-71
2023/07/28 08:10:38;;;;;;;1999.90;999.90;;;;;;;30.67;46.27;100740.34;5052290;28;20020;-71
2023/07/28 08:13:04;;;;;;;1999.90;999.90;;;;;;;31.04;45.30;100724.09;5061171;28;20033;-71
2023/07/28 08:15:29;;;;;;;1999.90;999.90;;;;;;;30.99;46.67;100729.06;5033968;28;20033;-72
2023/07/28 08:17:55;;;;;;;1999.90;999.90;;;;;;;30.72;46.86;100732.63;5048738;28;20043;-71
2023/07/28 08:20:20;;;;;;;1999.90;999.90;;;;;;;29.87;48.48;100736.13;5051238;28;20045;-71
2023/07/28 08:22:45;;;;;;;1999.90;999.90;;;;;;;31.07;46.32;100731.06;5052830;28;20036;-71
2023/07/28 08:25:11;;;;;;;1999.90;999.90;;;;;;;31.52;45.37;100731.97;5072358;28;20028;-70
2023/07/28 08:27:36;;;;;;;1999.90;999.90;;;;;;;31.16;45.94;100737.38;5070571;28;20039;-71
2023/07/28 08:30:03;;;;;;;1999.90;999.90;;;;;;;31.17;46.19;100739.91;5034073;28;20056;-71
2023/07/28 08:32:28;;;;;;;1999.90;999.90;;;;;;;29.66;48.55;100738.94;5048219;28;20024;-71
2023/07/28 08:34:54;;;;;;;1999.90;999.90;;;;;;;30.48;46.99;100741.25;5071375;28;20028;-71
2023/07/28 08:37:19;;;;;;;1999.90;999.90;;;;;;;30.21;47.80;100738.34;5065598;28;20033;-72
2023/07/28 08:39:45;;;;;;;1999.90;999.90;;;;;;;29.76;48.81;100744.34;5041120;28;20059;-71
2023/07/28 08:42:10;;;;;;;1999.90;999.90;;;;;;;29.74;47.85;100746.31;5052064;28;20496;-71
2023/07/28 08:44:36;;;;;;;1999.90;999.90;;;;;;;29.88;48.38;100751.31;5032731;28;20127;-71
2023/07/28 08:47:05;;;;;;;1999.90;999.90;;;;;;;29.48;48.59;100752.25;5035350;28;20503;-71
2023/07/28 08:49:36;;;;;;;1999.90;999.90;;;;;;;29.25;50.60;100752.53;5046736;28;20036;-71
2023/07/28 08:52:03;;;;;;;1999.90;999.90;;;;;;;30.09;49.03;100742.19;5051041;28;20334;-72
2023/07/28 08:54:29;;;;;;;1999.90;999.90;;;;;;;29.64;48.47;100750.88;5051745;28;20104;-71
2023/07/28 08:56:54;;;;;;;1999.90;999.90;;;;;;;29.70;49.50;100745.72;5058066;28;20159;-71
2023/07/28 08:59:26;;;;;;;1999.90;999.90;;;;;;;29.45;49.36;100741.78;5088279;28;20392;-71
2023/07/28 09:01:53;;;;;;;1999.90;999.90;;;;;;;30.60;47.64;100749.00;5085259;28;20032;-71
2023/07/28 09:04:25;;;;;;;1999.90;999.90;;;;;;;29.81;48.76;100751.97;5078477;28;21375;-71
2023/07/28 09:06:51;;;;;;;1999.90;999.90;;;;;;;28.20;53.67;100760.81;5084151;28;20051;-71
2023/07/28 09:09:20;;;;;;;1999.90;999.90;;;;;;;29.11;50.06;100750.19;5082247;28;20396;-72
2023/07/28 09:11:51;;;;;;;1999.90;999.90;;;;;;;30.81;47.13;100761.41;5072364;28;20447;-71
2023/07/28 09:14:18;;;;;;;1999.90;999.90;;;;;;;29.90;48.53;100752.00;5071882;28;20054;-71
2023/07/28 09:16:44;;;;;;;1999.90;999.90;;;;;;;29.27;49.61;100761.28;5069690;28;20109;-71
2023/07/28 09:19:10;;;;;;;1999.90;999.90;;;;;;;29.16;50.08;100758.69;5080370;28;20052;-71
2023/07/28 09:21:38;;;;;;;1999.90;999.90;;;;;;;29.10;50.36;100759.28;5088480;28;20023;-70
2023/07/28 09:24:08;;;;;;;1999.90;999.90;;;;;;;30.06;47.98;100755.94;5076442;28;20032;-71
2023/07/28 09:26:38;;;;;;;1999.90;999.90;;;;;;;30.42;47.39;100750.75;5069187;28;20028;-71
2023/07/28 09:29:33;;;;;;;1999.90;999.90;;;;;;;29.98;47.44;100761.19;5069623;28;20040;-70
2023/07/28 09:32:04;;;;;;;1999.90;999.90;;;;;;;30.23;47.43;100757.91;5061759;28;20032;-71
2023/07/28 09:34:30;;;;;;;1999.90;999.90;;;;;;;29.43;48.67;100763.44;5068287;28;20378;-70
2023/07/28 09:36:57;;;;;;;1999.90;999.90;;;;;;;30.43;46.53;100764.09;5069169;28;20032;-71
2023/07/28 09:39:23;;;;;;;1999.90;999.90;;;;;;;29.77;48.28;100768.44;5069701;28;20032;-71
2023/07/28 09:41:49;;;;;;;1999.90;999.90;;;;;;;30.76;45.99;100771.78;5087817;28;20376;-71
2023/07/28 09:44:15;;;;;;;1999.90;999.90;;;;;;;30.85;44.60;100764.66;5083187;28;20101;-72
2023/07/28 09:46:51;;;;;;;1999.90;999.90;;;;;;;31.14;45.83;100764.53;5069593;28;20115;-71
2023/07/28 09:49:22;;;;;;;1999.90;999.90;;;;;;;30.83;46.14;100764.81;5069694;28;20035;-71
2023/07/28 09:51:52;;;;;;;1999.90;999.90;;;;;;;31.86;43.77;100769.13;5069922;28;20078;-71
2023/07/28 09:54:27;;;;;;;1999.90;999.90;;;;;;;31.13;45.31;100768.22;5078007;28;20119;-71
2023/07/28 09:56:56;;;;;;;1999.90;999.90;;;;;;;30.69;46.01;100781.47;5058818;28;20060;-71
2023/07/28 09:59:27;;;;;;;1999.90;999.90;;;;;;;32.55;42.86;100778.25;5040087;28;20047;-71
2023/07/28 10:01:53;;;;;;;1999.90;999.90;;;;;;;31.12;44.43;100780.03;5064925;28;20159;-70
2023/07/28 10:04:20;;;;;;;1999.90;999.90;;;;;;;31.06;44.81;100780.63;5049459;28;20040;-71
2023/07/28 10:06:47;;;;;;;1999.90;999.90;;;;;;;30.85;45.34;100779.00;5030745;28;20025;-71
2023/07/28 10:09:16;;;;;;;1999.90;999.90;;;;;;;30.38;46.67;100781.72;5056955;28;20510;-71
2023/07/28 10:11:42;;;;;;;1999.90;999.90;;;;;;;30.79;46.55;100791.22;5035824;28;20033;-71
2023/07/28 10:14:10;;;;;;;1999.90;999.90;;;;;;;31.16;44.27;100791.34;5051157;28;20131;-70
2023/07/28 10:16:39;;;;;;;1999.90;999.90;;;;;;;31.01;45.09;100780.19;5068350;28;20020;-71
2023/07/28 10:19:05;;;;;;;1999.90;999.90;;;;;;;29.12;48.82;100789.56;5056275;28;20047;-71
2023/07/28 10:21:39;;;;;;;1999.90;999.90;;;;;;;30.48;46.69;100792.50;5037225;28;20044;-71
2023/07/28 10:24:04;;;;;;;1999.90;999.90;;;;;;;30.85;45.48;100789.78;5068865;28;20158;-70
2023/07/28 10:26:37;;;;;;;1999.90;999.90;;;;;;;30.50;46.06;100785.97;5050053;28;20127;-71
2023/07/28 10:29:21;;;;;;;1999.90;999.90;;;;;;;29.85;46.61;100789.28;5032783;28;20028;-72
2023/07/28 10:31:54;;;;;;;1999.90;999.90;;;;;;;29.18;48.71;100794.41;5031708;28;20029;-71
2023/07/28 10:34:21;;;;;;;1999.90;999.90;;;;;;;29.72;48.23;100796.78;5030982;28;20020;-71
2023/07/28 10:36:55;;;;;;;1999.90;999.90;;;;;;;29.46;49.40;100797.31;5030167;28;20027;-71
2023/07/28 10:39:21;;;;;;;1999.90;999.90;;;;;;;30.20;47.06;100795.91;5049567;28;20473;-71
2023/07/28 10:42:08;;;;;;;1999.90;999.90;;;;;;;29.32;48.20;100801.25;5052023;28;20027;-71
2023/07/28 10:44:34;;;;;;;1999.90;999.90;;;;;;;28.33;51.09;100804.47;5030185;28;20598;-71